• Join FlightAware (Why Join?)
  • Login
  • US Flag 
05:59AM EDT


 

Airport Tracker/Info


-or-


 

Live Flight TrackerFlight Track Log ✈ UPS1337 ✈ 28-Apr-2014 ✈ KPIE - KSDF

Flight Track Log - Related Links

Times and Time Zones

All times are in EDT time to prevent confusion due to time zone crossing. See the UPS1337 flight status page for this flight to view local times or setup timezone preferences in your user account.

Time Position Orientation Groundspeed Altitude Reporting Facility
EDT Latitude Longitude Course Direction KTS MPH feet Rate Location/Type
09:46PM 27.9000 -82.6833 192° South 173 199 800  Level Tampa TRACON
09:47PM 27.8333 -82.7000 192° South 256 295 3,600 2,640 Climbing Tampa TRACON
09:48PM 27.8500 -82.7833 283° West 299 344 7,000 2,700 Climbing Tampa TRACON
09:50PM 27.9789 -82.7586 10° North 285 328 10,800 1,920 Climbing Jacksonville Center
09:51PM 28.0853 -82.7419 North 354 407 12,200 2,100 Climbing Jacksonville Center
09:52PM 28.2000 -82.7278 North 381 438 15,100 2,640 Climbing Jacksonville Center
09:53PM 28.3167 -82.7158 North 403 464 17,500 2,460 Climbing Jacksonville Center
09:55PM 28.5963 -82.6840 North 443 510 22,900 1,920 Climbing FlightAware ADS-B (KMCO)
09:59PM 29.0223 -82.6374 North 451 519 28,200 1,620 Climbing FlightAware ADS-B (KMCO)
10:00PM 29.2186 -82.6152 North 463 533 30,900 660 Climbing FlightAware ADS-B (KMCO)
10:06PM 29.9293 -82.5359 North 459 528 33,000 180 Climbing FlightAware ADS-B (KMCO)
10:11PM 30.5623 -82.4639 North 458 527 33,000  Level FlightAware ADS-B (KMCO)
10:11PM 30.6492 -82.4540 North 458 527 33,000  Level FlightAware ADS-B (KMCO)
10:12PM 30.7397 -82.4453 North 463 533 33,000  Level Jacksonville Center
10:13PM 30.8650 -82.4328 North 463 533 33,000 -60 Level Jacksonville Center
10:14PM 30.9944 -82.4175 North 463 533 32,900  Descending Jacksonville Center
10:15PM 31.1236 -82.4000 North 463 533 33,000  Climbing Jacksonville Center
10:16PM 31.2531 -82.3872 North 463 533 33,000  Level Jacksonville Center
10:17PM 31.3825 -82.3694 North 463 533 33,000  Level Jacksonville Center
10:19PM 31.6681 -82.3381 North 469 540 33,000  Level Atlanta Center
10:20PM 31.7994 -82.3233 North 469 540 33,000  Level Atlanta Center
10:21PM 31.9264 -82.3064 North 464 534 33,000  Level Atlanta Center
10:22PM 32.0536 -82.2917 North 464 534 33,000  Level Atlanta Center
10:23PM 32.1847 -82.2767 North 464 534 33,000  Level Atlanta Center
10:24PM 32.3264 -82.2592 North 464 534 33,000  Level Atlanta Center
10:25PM 32.4536 -82.2419 North 464 534 33,000  Level Atlanta Center
10:26PM 32.5847 -82.2244 North 464 534 33,000  Level Atlanta Center
10:27PM 32.7183 -82.2119 North 470 541 33,000  Level Atlanta Center
10:28PM 32.8475 -82.1942 North 470 541 33,000  Level Atlanta Center
10:29PM 32.9767 -82.1817 North 470 541 33,000  Level Atlanta Center
10:30PM 33.0975 -82.1667 North 475 547 33,000  Level Atlanta Center
10:31PM 33.2267 -82.1492 North 475 547 33,000  Level Atlanta Center
10:32PM 33.3600 -82.1336 North 480 552 33,000 480 Level Atlanta Center
10:33PM 33.4917 -82.1433 356° North 475 547 34,000 480 Climbing Atlanta Center
10:34PM 33.6092 -82.1956 340° North 457 526 34,000  Level Atlanta Center
10:35PM 33.7311 -82.2478 340° North 451 519 34,000  Level Atlanta Center
10:36PM 33.8633 -82.3100 339° North 462 532 34,000  Level Atlanta Center
10:41PM 34.5551 -82.6078 340° North 460 529 34,000  Level FlightAware ADS-B (KDZJ)
10:42PM 34.6231 -82.6379 340° North 465 535 34,000  Level FlightAware ADS-B (KDZJ)
10:42PM 34.6991 -82.6714 340° North 447 514 34,000  Level FlightAware ADS-B (KDZJ)
10:43PM 34.7802 -82.7074 340° North 443 510 34,000  Level FlightAware ADS-B (KDZJ)
10:44PM 34.8795 -82.7517 340° North 443 510 34,000  Level FlightAware ADS-B (KDZJ)
10:44PM 34.9491 -82.7829 340° North 446 513 34,000  Level FlightAware ADS-B (KDZJ)
10:46PM 35.0863 -82.8441 340° North 449 517 34,000  Level FlightAware ADS-B (KDZJ)
10:47PM 35.1993 -82.8947 340° North 450 518 34,000  Level FlightAware ADS-B (KDZJ)
10:47PM 35.3109 -82.9450 339° North 446 513 34,000  Level FlightAware ADS-B (KDZJ)
10:48PM 35.4132 -82.9912 340° North 449 517 34,000  Level FlightAware ADS-B (KDZJ)
10:49PM 35.5173 -83.0383 340° North 464 534 34,000  Level FlightAware ADS-B (KDZJ)
10:50PM 35.6169 -83.0835 339° North 461 531 34,000  Level FlightAware ADS-B (KDZJ)
10:51PM 35.7253 -83.1328 339° North 464 534 34,000  Level FlightAware ADS-B (KDZJ)
10:52PM 35.7203 -83.1306 339° North 466 536 34,000  Level Indianapolis Center
10:52PM 35.7861 -83.1633 338° Northwest 464 534 34,000  Level Atlanta Center
10:53PM 35.9053 -83.2183 340° North 464 534 34,000  Level Atlanta Center
10:54PM 36.0308 -83.2736 340° North 470 541 34,000  Level Atlanta Center
10:55PM 36.1564 -83.3317 340° North 470 541 34,000  Level Atlanta Center
10:56PM 36.2756 -83.3897 339° North 470 541 34,000 -300 Level Atlanta Center
10:57PM 36.3381 -83.4144 342° North 475 547 33,600 -900 Descending Indianapolis Center
10:58PM 36.4625 -83.4722 340° North 475 547 32,600 -1,080 Descending Indianapolis Center
10:59PM 36.5867 -83.5300 340° North 475 547 31,500 -1,140 Descending Indianapolis Center
11:00PM 36.7097 -83.5875 339° North 471 542 30,400 -780 Descending Indianapolis Center
11:01PM 36.8344 -83.6458 339° North 475 547 30,000 -840 Descending Indianapolis Center
11:02PM 36.9450 -83.7694 318° Northwest 456 525 28,800 -1,320 Descending Indianapolis Center
11:03PM 37.0211 -83.8958 307° West 455 524 27,400 -1,680 Descending Indianapolis Center
11:04PM 37.0969 -84.0203 307° West 446 513 25,400 -2,100 Descending Indianapolis Center
11:05PM 37.1689 -84.1397 307° West 427 491 23,200 -2,100 Descending Indianapolis Center
11:06PM 37.2392 -84.2561 307° West 419 482 21,200 -1,920 Descending Indianapolis Center
11:07PM 37.3072 -84.3706 307° West 411 473 19,400 -1,920 Descending Indianapolis Center
11:08PM 37.3747 -84.4828 307° West 406 467 17,300 -1,860 Descending Indianapolis Center
11:09PM 37.4400 -84.5919 307° West 389 448 15,700 -1,620 Descending Indianapolis Center
11:10PM 37.5025 -84.6972 307° West 374 430 14,100 -1,560 Descending Indianapolis Center
11:11PM 37.5639 -84.8017 307° West 373 429 12,600 -1,860 Descending Indianapolis Center
11:12PM 37.6361 -84.9228 307° West 372 428 10,400 -1,380 Descending Indianapolis Center
11:13PM 37.7003 -85.0197 310° West 363 418 9,900 -240 Descending Indianapolis Center
11:14PM 37.7708 -85.1144 313° West 365 420 10,000  Climbing Indianapolis Center
11:15PM 37.8417 -85.2128 312° West 365 420 10,000  Level Indianapolis Center
11:16PM 37.9086 -85.3058 312° West 344 396 10,000 -300 Level Indianapolis Center
11:17PM 37.9658 -85.3853 312° West 294 338 9,400 -840 Descending Indianapolis Center
11:18PM 38.0183 -85.4581 312° West 280 322 8,400 -1,140 Descending Indianapolis Center
11:19PM 38.0719 -85.5328 312° West 284 327 7,200 -1,140 Descending Indianapolis Center
11:20PM 38.1314 -85.6000 318° Northwest 299 344 6,100 -1,200 Descending Indianapolis Center
11:21PM 38.2161 -85.6250 347° North 306 352 4,800 -1,020 Descending Indianapolis Center
11:22PM 38.3000 -85.6503 347° North 307 353 4,100 -720 Descending Indianapolis Center
11:23PM 38.3778 -85.6731 347° North 303 349 3,400 -540 Descending Indianapolis Center
11:24PM 38.4042 -85.7386 297° West 264 304 3,000 -240 Descending Indianapolis Center
11:26PM 38.3728 -85.7889 231° Southwest 238 274 3,000  Level Indianapolis Center
11:27PM 38.3214 -85.7928 183° South 211 243 3,000 -360 Level Indianapolis Center
11:28PM 38.2767 -85.7789 166° South 185 213 2,300 -720 Descending Indianapolis Center
11:30PM 38.2000 -85.7500 164° South 126 145 900 -720 Descending Louisville TRACON